createdAt,value
2017-03-25T00:00:21.375Z,68.11
2017-03-25T00:01:31.725Z,67.92
2017-03-25T00:02:42.073Z,68.21
2017-03-25T00:03:52.090Z,68.21
2017-03-25T00:05:02.436Z,68.11
2017-03-25T00:06:12.772Z,67.92
2017-03-25T00:07:22.821Z,68.3
2017-03-25T00:08:32.546Z,67.92
2017-03-25T00:09:42.913Z,67.82
2017-03-25T00:10:52.686Z,68.21
2017-03-25T00:12:03.046Z,68.4
2017-03-25T00:13:13.437Z,68.4
2017-03-25T00:14:23.792Z,68.4
2017-03-25T00:15:33.836Z,68.21
2017-03-25T00:16:44.163Z,68.4
2017-03-25T00:17:54.517Z,68.4
2017-03-25T00:19:04.895Z,67.92
2017-03-25T00:20:15.245Z,67.92
2017-03-25T00:21:25.603Z,67.82
2017-03-25T00:22:35.949Z,67.82
2017-03-25T00:23:45.978Z,67.92
2017-03-25T00:24:56.323Z,68.11
2017-03-25T00:26:06.357Z,67.92
2017-03-25T00:27:16.393Z,67.92
2017-03-25T00:28:26.735Z,67.82
2017-03-25T00:29:36.766Z,68.01
2017-03-25T00:30:47.127Z,67.82
2017-03-25T00:31:57.158Z,68.4
2017-03-25T00:33:07.492Z,68.3
2017-03-25T00:34:17.513Z,68.4
2017-03-25T00:35:27.870Z,68.49
2017-03-25T00:36:38.228Z,68.3
2017-03-25T00:37:47.948Z,68.4
2017-03-25T00:38:57.983Z,68.4
2017-03-25T00:40:08.027Z,68.77
2017-03-25T00:41:18.377Z,68.77
2017-03-25T00:42:28.086Z,68.77
2017-03-25T00:43:38.130Z,68.49
2017-03-25T00:44:48.718Z,68.4
2017-03-25T00:45:59.103Z,68.21
2017-03-25T00:47:09.464Z,68.3
2017-03-25T00:48:18.876Z,68.59
2017-03-25T00:49:28.935Z,68.4
2017-03-25T00:50:39.507Z,68.4
2017-03-25T00:51:49.577Z,68.21
2017-03-25T00:52:59.913Z,68.21
2017-03-25T00:54:09.313Z,68.46
2017-03-25T00:55:19.669Z,68.3
2017-03-25T00:56:30.007Z,68.4
2017-03-25T00:57:40.359Z,68.3
2017-03-25T00:58:50.694Z,68.21
2017-03-25T01:00:00.717Z,68.49
2017-03-25T01:01:11.077Z,68.3
2017-03-25T01:02:21.109Z,68.17
2017-03-25T01:03:31.462Z,68.36
2017-03-25T01:04:41.488Z,68.27
2017-03-25T01:05:51.515Z,68.36
2017-03-25T01:07:01.229Z,68.27
2017-03-25T01:08:11.552Z,68.55
2017-03-25T01:09:21.871Z,68.46
2017-03-25T01:10:31.881Z,68.46
2017-03-25T01:11:42.214Z,68.36
2017-03-25T01:12:52.546Z,68.46
2017-03-25T01:14:02.578Z,68.55
2017-03-25T01:15:12.904Z,68.55
2017-03-25T01:16:23.249Z,68.46
2017-03-25T01:17:33.590Z,68.36
2017-03-25T01:18:43.625Z,68.36
2017-03-25T01:19:53.978Z,68.36
2017-03-25T01:21:04.004Z,68.27
2017-03-25T01:22:14.021Z,68.17
2017-03-25T01:23:24.346Z,68.17
2017-03-25T01:24:34.370Z,67.88
2017-03-25T01:25:44.399Z,68.17
2017-03-25T01:26:54.439Z,68.27
2017-03-25T01:28:04.816Z,67.98
2017-03-25T01:29:15.180Z,68.07
2017-03-25T01:30:25.508Z,67.88
2017-03-25T01:31:35.834Z,67.79
2017-03-25T01:32:45.529Z,67.88
2017-03-25T01:33:55.851Z,68.07
2017-03-25T01:35:05.875Z,67.88
2017-03-25T01:36:15.897Z,67.88
2017-03-25T01:37:26.227Z,67.98
2017-03-25T01:38:36.562Z,67.79
2017-03-25T01:39:46.885Z,67.88
2017-03-25T01:40:57.208Z,67.88
2017-03-25T01:42:07.568Z,68.07
2017-03-25T01:43:17.888Z,67.98
2017-03-25T01:44:28.223Z,68.27
2017-03-25T01:45:38.589Z,68.07
2017-03-25T01:46:48.922Z,68.07
2017-03-25T01:47:59.252Z,68.27
2017-03-25T01:49:09.268Z,68.07
2017-03-25T01:50:19.296Z,67.88
2017-03-25T01:51:29.012Z,67.88
2017-03-25T01:52:39.325Z,67.94
2017-03-25T01:53:49.671Z,67.98
2017-03-25T01:55:00.018Z,67.98
2017-03-25T01:56:10.350Z,67.98
2017-03-25T01:57:20.682Z,67.76
2017-03-25T01:58:30.384Z,67.76
2017-03-25T01:59:40.430Z,68.04
2017-03-25T02:00:50.137Z,68.04
2017-03-25T02:02:00.460Z,67.85
2017-03-25T02:03:10.792Z,67.88
2017-03-25T02:04:21.130Z,67.85
2017-03-25T02:05:31.178Z,68.13
2017-03-25T02:06:41.199Z,68.33
2017-03-25T02:07:51.207Z,68.27
2017-03-25T02:09:01.552Z,68.33
2017-03-25T02:10:11.939Z,68.23
2017-03-25T02:11:21.965Z,68.33
2017-03-25T02:12:32.315Z,67.85
2017-03-25T02:13:42.055Z,68.04
2017-03-25T02:14:52.394Z,67.76
2017-03-25T02:16:02.416Z,68.13
2017-03-25T02:17:12.743Z,67.85
2017-03-25T02:18:23.089Z,67.85
2017-03-25T02:19:33.420Z,67.94
2017-03-25T02:20:43.772Z,67.85
2017-03-25T02:21:53.784Z,68.13
2017-03-25T02:23:03.790Z,68.13
2017-03-25T02:24:14.116Z,67.66
2017-03-25T02:25:23.495Z,67.85
2017-03-25T02:26:33.553Z,67.94
2017-03-25T02:27:43.893Z,68.13
2017-03-25T02:28:53.592Z,68.13
2017-03-25T02:30:03.919Z,68.23
2017-03-25T02:31:13.938Z,67.85
2017-03-25T02:32:24.258Z,68.04
2017-03-25T02:33:33.968Z,67.66
2017-03-25T02:34:44.297Z,67.85
2017-03-25T02:35:54.624Z,67.94
2017-03-25T02:37:04.946Z,68.04
2017-03-25T02:38:14.977Z,68.13
2017-03-25T02:39:25.304Z,68.04
2017-03-25T02:40:35.339Z,68.04
2017-03-25T02:41:45.367Z,68.23
2017-03-25T02:42:55.700Z,68.04
2017-03-25T02:44:06.039Z,68.04
2017-03-25T02:45:16.367Z,68.04
2017-03-25T02:46:26.723Z,68.04
2017-03-25T02:47:37.060Z,68.13
2017-03-25T02:48:47.392Z,68.04
2017-03-25T02:49:57.723Z,68.04
2017-03-25T02:51:08.065Z,68.23
2017-03-25T02:52:18.398Z,67.85
2017-03-25T02:53:28.759Z,67.85
2017-03-25T02:54:39.102Z,68.04
2017-03-25T02:55:49.449Z,68.04
2017-03-25T02:56:59.482Z,68.04
2017-03-25T02:58:09.521Z,68.04
2017-03-25T02:59:19.860Z,67.85
2017-03-25T03:00:30.198Z,67.94
2017-03-25T03:32:10.442Z,66.54
2017-03-25T03:33:19.518Z,66.74
2017-03-25T03:34:29.537Z,67.87
2017-03-25T03:35:39.906Z,68.35
2017-03-25T03:36:49.622Z,68.35
2017-03-25T03:37:59.959Z,69.1
2017-03-25T03:39:10.301Z,69.33
2017-03-25T03:40:20.337Z,69.13
2017-03-25T03:41:30.046Z,69.52
2017-03-25T03:42:40.373Z,69.42
2017-03-25T03:43:50.395Z,69.42
2017-03-25T03:45:00.739Z,69.55
2017-03-25T03:46:10.771Z,69.17
2017-03-25T03:47:21.108Z,69.36
2017-03-25T03:48:31.122Z,69.36
2017-03-25T03:49:41.465Z,69.55
2017-03-25T03:50:51.815Z,69.11
2017-03-25T03:52:01.843Z,69.21
2017-03-25T03:53:12.181Z,69.11
2017-03-25T03:54:22.503Z,68.92
2017-03-25T03:55:32.529Z,68.26
2017-03-25T03:56:42.544Z,68.73
2017-03-25T03:57:52.564Z,68.83
2017-03-25T03:59:02.591Z,68.54
2017-03-25T04:00:12.633Z,68.44
2017-03-25T04:01:23.004Z,68.67
2017-03-25T04:02:33.341Z,68.67
2017-03-25T04:03:43.371Z,68.67
2017-03-25T04:04:53.709Z,68.96
2017-03-25T04:06:04.054Z,68.67
2017-03-25T04:07:14.083Z,68.58
2017-03-25T04:08:24.114Z,68.67
2017-03-25T04:09:34.176Z,68.29
2017-03-25T04:10:44.518Z,68.67
2017-03-25T04:11:54.533Z,68.19
2017-03-25T04:13:04.871Z,68.29
2017-03-25T04:14:14.586Z,68.1
2017-03-25T04:15:24.931Z,68.1
2017-03-25T04:16:35.322Z,67.82
2017-03-25T04:17:45.679Z,67.72
2017-03-25T04:18:55.720Z,67.82
2017-03-25T04:20:05.992Z,67.82
2017-03-25T04:21:16.325Z,68.01
2017-03-25T04:22:26.365Z,68.01
2017-03-25T04:23:36.692Z,68.01
2017-03-25T04:24:47.035Z,68.19
2017-03-25T04:25:57.062Z,68.1
2017-03-25T04:27:07.394Z,67.91
2017-03-25T04:28:17.433Z,68.01
2017-03-25T04:29:27.773Z,68.01
2017-03-25T04:30:38.093Z,67.91
2017-03-25T04:31:48.118Z,67.82
2017-03-25T04:32:58.451Z,68.01
2017-03-25T04:34:08.485Z,67.91
2017-03-25T04:35:18.829Z,68.1
2017-03-25T04:36:29.159Z,68.1
2017-03-25T04:37:39.187Z,68.19
2017-03-25T04:38:49.221Z,68.1
2017-03-25T04:39:59.561Z,68.19
2017-03-25T04:41:09.622Z,68.29
2017-03-25T04:42:19.962Z,68.19
2017-03-25T04:43:29.986Z,68.1
2017-03-25T04:44:40.320Z,68.1
2017-03-25T04:45:50.023Z,68.1
2017-03-25T04:47:00.365Z,68.19
2017-03-25T04:48:10.699Z,68.29
2017-03-25T04:49:20.724Z,68.19
2017-03-25T04:50:31.061Z,68.19
2017-03-25T04:51:41.079Z,68.1
2017-03-25T04:52:51.432Z,68.39
2017-03-25T04:54:01.468Z,68.29
2017-03-25T04:55:11.791Z,68.1
2017-03-25T04:56:21.814Z,67.82
2017-03-25T04:57:32.122Z,67.82
2017-03-25T04:58:42.148Z,67.82
2017-03-25T04:59:52.484Z,67.72
2017-03-25T05:01:02.806Z,67.72
2017-03-25T05:02:13.196Z,67.82
2017-03-25T05:03:23.217Z,67.53
2017-03-25T05:04:33.562Z,67.85
2017-03-25T05:05:43.587Z,67.28
2017-03-25T05:06:53.921Z,67.57
2017-03-25T05:08:04.247Z,67.38
2017-03-25T05:09:14.596Z,67.47
2017-03-25T05:10:24.924Z,67.47
2017-03-25T05:11:35.252Z,67.09
2017-03-25T05:12:45.595Z,68.04
2017-03-25T05:13:55.630Z,67.66
2017-03-25T05:15:05.667Z,67.76
2017-03-25T05:16:15.677Z,67.19
2017-03-25T05:17:26.052Z,67.47
2017-03-25T05:18:36.075Z,67.47
2017-03-25T05:19:46.108Z,67.38
2017-03-25T05:20:55.814Z,67.57
2017-03-25T05:22:05.853Z,67.47
2017-03-25T05:23:15.879Z,67
2017-03-25T05:24:25.592Z,67.09
2017-03-25T05:25:35.933Z,67.28
2017-03-25T05:26:46.289Z,67.5
2017-03-25T05:27:56.627Z,67.22
2017-03-25T05:29:06.956Z,67.32
2017-03-25T05:30:17.329Z,67.32
2017-03-25T05:31:27.677Z,67.32
2017-03-25T05:32:38.007Z,67.69
2017-03-25T05:33:48.346Z,67.32
2017-03-25T05:34:58.383Z,67.32
2017-03-25T05:36:08.742Z,67.6
2017-03-25T05:37:19.058Z,67.44
2017-03-25T05:38:29.120Z,67.07
2017-03-25T05:39:39.212Z,67.44
2017-03-25T05:40:49.549Z,66.97
2017-03-25T05:41:59.573Z,66.97
2017-03-25T05:43:09.913Z,66.97
2017-03-25T05:44:20.284Z,67.25
2017-03-25T05:45:30.615Z,67.44
2017-03-25T05:46:41.011Z,66.59
2017-03-25T05:47:51.355Z,67
2017-03-25T05:49:01.694Z,66.91
2017-03-25T05:50:11.398Z,66.81
2017-03-25T05:51:21.410Z,66.91
2017-03-25T05:52:31.438Z,66.91
2017-03-25T05:53:41.771Z,66.91
2017-03-25T05:54:52.112Z,66.53
2017-03-25T05:56:02.148Z,66.91
2017-03-25T05:57:12.172Z,66.56
2017-03-25T05:58:22.510Z,66.56
2017-03-25T05:59:32.845Z,66.85
2017-03-25T06:00:43.212Z,66.94
2017-03-25T06:01:53.559Z,66.85
2017-03-25T06:03:03.916Z,66.66
2017-03-25T06:04:14.264Z,66.85
2017-03-25T06:05:24.275Z,66.75
2017-03-25T06:06:34.621Z,66.56
2017-03-25T06:07:44.952Z,67.55
2017-03-25T06:08:55.292Z,67.03
2017-03-25T06:10:05.323Z,66.85
2017-03-25T06:11:15.354Z,67.13
2017-03-25T06:12:25.692Z,67.45
2017-03-25T06:13:35.417Z,67.83
2017-03-25T06:14:45.758Z,67.03
2017-03-25T06:15:56.082Z,67.45
2017-03-25T06:17:06.109Z,67.35
2017-03-25T06:18:16.478Z,67.26
2017-03-25T06:19:26.818Z,66.97
2017-03-25T06:20:37.165Z,67.45
2017-03-25T06:21:47.495Z,67.45
2017-03-25T06:22:57.530Z,67.64
2017-03-25T06:24:07.883Z,67.07
2017-03-25T06:25:18.209Z,66.69
2017-03-25T06:26:28.228Z,66.91
2017-03-25T06:27:38.572Z,67
2017-03-25T06:28:48.894Z,66.82
2017-03-25T06:29:59.248Z,67
2017-03-25T06:31:09.597Z,66.82
2017-03-25T06:32:19.941Z,67.48
2017-03-25T06:33:30.277Z,67.2
2017-03-25T06:34:40.313Z,67.48
2017-03-25T06:35:50.646Z,67.58
2017-03-25T06:37:00.673Z,67.39
2017-03-25T06:38:10.990Z,67.2
2017-03-25T06:39:21.343Z,67.58
2017-03-25T06:40:31.370Z,67.58
2017-03-25T06:41:41.384Z,67.58
2017-03-25T06:42:51.714Z,67.68
2017-03-25T06:44:02.046Z,67
2017-03-25T06:45:12.079Z,67.1
2017-03-25T06:46:22.098Z,66.72
2017-03-25T06:47:32.430Z,67.39
2017-03-25T06:48:42.778Z,67.29
2017-03-25T06:49:52.858Z,67.39
2017-03-25T06:51:02.887Z,67.39
2017-03-25T06:52:12.623Z,67.58
2017-03-25T06:53:22.323Z,67.2
2017-03-25T06:54:32.668Z,67.1
2017-03-25T06:55:42.713Z,66.94
2017-03-25T06:56:53.061Z,67.39
2017-03-25T06:58:03.094Z,66.91
2017-03-25T06:59:13.424Z,67.04
2017-03-25T07:00:23.522Z,67.04
2017-03-25T07:01:33.541Z,67.33
2017-03-25T07:02:43.573Z,67.61
2017-03-25T07:03:53.913Z,67.52
2017-03-25T07:05:03.937Z,67.8
2017-03-25T07:06:14.321Z,67.04
2017-03-25T07:07:24.679Z,67.14
2017-03-25T07:08:35.001Z,67.23
2017-03-25T07:09:45.320Z,67.71
2017-03-25T07:10:55.356Z,67.61
2017-03-25T07:12:05.710Z,67.52
2017-03-25T07:13:16.065Z,67.52
2017-03-25T07:14:26.403Z,67.23
2017-03-25T07:15:36.756Z,67.14
2017-03-25T07:16:47.088Z,67.42
2017-03-25T07:17:57.105Z,67.42
2017-03-25T07:19:07.154Z,67.52
2017-03-25T07:20:17.190Z,67.74
2017-03-25T07:21:27.530Z,67.17
2017-03-25T07:22:37.872Z,67.07
2017-03-25T07:23:48.274Z,66.98
2017-03-25T07:24:58.005Z,66.98
2017-03-25T07:26:08.345Z,67.07
2017-03-25T07:27:18.372Z,66.78
2017-03-25T07:28:28.713Z,66.69
2017-03-25T07:29:38.783Z,66.92
2017-03-25T07:30:48.805Z,67.11
2017-03-25T07:31:59.154Z,67.11
2017-03-25T07:33:09.511Z,67.11
2017-03-25T07:34:19.883Z,67.21
2017-03-25T07:35:30.271Z,66.63
2017-03-25T07:36:40.682Z,67.11
2017-03-25T07:37:50.721Z,67.21
2017-03-25T07:39:00.758Z,67.21
2017-03-25T07:40:11.105Z,67.21
2017-03-25T07:41:21.141Z,67.01
2017-03-25T07:42:30.873Z,67.21
2017-03-25T07:43:41.210Z,66.92
2017-03-25T07:44:51.561Z,67.11
2017-03-25T07:46:01.899Z,67.3
2017-03-25T07:47:11.929Z,67.21
2017-03-25T07:48:21.665Z,67.21
2017-03-25T07:49:32.022Z,67.05
2017-03-25T07:50:42.038Z,67.24
2017-03-25T07:51:52.406Z,66.95
2017-03-25T07:53:02.744Z,67.05
2017-03-25T07:54:12.769Z,66.95
2017-03-25T07:55:22.809Z,67.14
2017-03-25T07:56:33.143Z,67.05
2017-03-25T07:57:43.190Z,66.85
2017-03-25T07:58:53.206Z,66.85
2017-03-25T08:00:03.572Z,67.24
2017-03-25T08:01:13.591Z,66.79
2017-03-25T08:02:23.943Z,66.99
2017-03-25T08:03:34.294Z,66.99
2017-03-25T08:04:44.620Z,66.89
2017-03-25T08:05:54.665Z,67.08
2017-03-25T08:07:05.043Z,67.18
2017-03-25T08:08:15.394Z,67.18
2017-03-25T08:09:25.117Z,67.18
2017-03-25T08:10:35.447Z,66.6
2017-03-25T08:11:45.784Z,66.6
2017-03-25T08:12:56.126Z,66.63
2017-03-25T08:14:06.470Z,67.11
2017-03-25T08:15:16.812Z,67.08
2017-03-25T08:16:27.168Z,67.3
2017-03-25T08:17:37.518Z,67.46
2017-03-25T08:18:47.610Z,67.21
2017-03-25T08:19:57.965Z,67.21
2017-03-25T08:21:08.323Z,67.11
2017-03-25T08:22:18.035Z,67.11
2017-03-25T08:23:28.406Z,66.63
2017-03-25T08:24:38.437Z,66.73
2017-03-25T08:25:48.469Z,66.63
2017-03-25T08:26:58.840Z,66.63
2017-03-25T08:28:09.199Z,66.63
2017-03-25T08:29:19.229Z,66.63
2017-03-25T08:30:29.283Z,66.73
2017-03-25T08:31:39.632Z,66.92
2017-03-25T08:32:49.650Z,66.96
2017-03-25T08:34:00.009Z,67.14
2017-03-25T08:35:09.731Z,66.57
2017-03-25T08:36:20.104Z,66.57
2017-03-25T08:37:30.470Z,66.38
2017-03-25T08:38:40.801Z,66.57
2017-03-25T08:39:50.841Z,66.57
2017-03-25T08:41:01.211Z,66.47
2017-03-25T08:42:10.964Z,66.51
2017-03-25T08:43:21.367Z,66.89
2017-03-25T08:44:31.090Z,66.41
2017-03-25T08:45:41.144Z,67.08
2017-03-25T08:46:51.502Z,66.51
2017-03-25T08:48:01.524Z,66.51
2017-03-25T08:49:11.898Z,66.61
2017-03-25T08:50:22.302Z,66.61
2017-03-25T08:51:32.688Z,66.41
2017-03-25T08:52:42.743Z,66.99
2017-03-25T08:53:53.094Z,67.27
2017-03-25T08:55:03.449Z,67.18
2017-03-25T08:56:13.806Z,67.08
2017-03-25T08:57:23.855Z,67.37
2017-03-25T08:58:34.210Z,67.27
2017-03-25T08:59:44.570Z,67.27
2017-03-25T09:00:54.306Z,66.93
2017-03-25T09:02:04.332Z,67.02
2017-03-25T09:03:14.694Z,66.54
2017-03-25T09:04:25.076Z,66.45
2017-03-25T09:05:35.455Z,66.54
2017-03-25T09:06:45.805Z,66.74
2017-03-25T09:07:56.180Z,66.67
2017-03-25T09:09:06.526Z,66.96
2017-03-25T09:10:16.877Z,66.58
2017-03-25T09:11:26.621Z,67.15
2017-03-25T09:12:36.658Z,66.77
2017-03-25T09:13:46.711Z,66.67
2017-03-25T09:14:56.770Z,66.38
2017-03-25T09:16:06.810Z,66.86
2017-03-25T09:17:17.164Z,67.05
2017-03-25T09:18:26.923Z,67.05
2017-03-25T09:19:37.286Z,66.86
2017-03-25T09:20:47.653Z,66.67
2017-03-25T09:21:57.995Z,66.48
2017-03-25T09:23:08.358Z,66.42
2017-03-25T09:24:18.732Z,66.71
2017-03-25T09:25:29.135Z,66.61
2017-03-25T09:26:39.495Z,66.8
2017-03-25T09:27:49.524Z,66.45
2017-03-25T09:28:59.593Z,66.64
2017-03-25T09:30:09.955Z,66.55
2017-03-25T09:31:20.332Z,66.55
2017-03-25T09:32:30.707Z,66.35
2017-03-25T09:33:41.108Z,66.55
2017-03-25T09:34:51.189Z,66.74
2017-03-25T09:36:01.531Z,66.83
2017-03-25T09:37:11.885Z,66.74
2017-03-25T09:38:22.260Z,66.67
2017-03-25T09:39:32.327Z,66.86
2017-03-25T09:40:42.361Z,66.86
2017-03-25T09:41:52.411Z,66.67
2017-03-25T09:43:02.474Z,66.19
2017-03-25T09:44:12.862Z,66.19
2017-03-25T09:45:23.230Z,66.13
2017-03-25T09:46:33.613Z,66.13
2017-03-25T09:47:43.984Z,66.23
2017-03-25T09:48:54.351Z,66.23
2017-03-25T09:50:04.713Z,65.84
2017-03-25T09:51:15.061Z,65.84
2017-03-25T09:52:25.422Z,65.94
2017-03-25T09:53:35.782Z,65.84
2017-03-25T09:54:46.194Z,65.69
2017-03-25T09:55:56.542Z,65.97
2017-03-25T09:57:06.890Z,65.97
2017-03-25T09:58:17.251Z,66.07
2017-03-25T09:59:27.301Z,66.64
2017-03-25T10:00:37.666Z,66.36
2017-03-25T10:01:47.730Z,66.74
2017-03-25T10:02:58.329Z,66.74
2017-03-25T10:04:08.719Z,66.55
2017-03-25T10:05:18.811Z,66.46
2017-03-25T10:06:29.174Z,66.55
2017-03-25T10:07:39.532Z,65.88
2017-03-25T10:08:49.573Z,66.46
2017-03-25T10:09:59.938Z,66.74
2017-03-25T10:11:10.281Z,66.26
2017-03-25T10:12:20.629Z,66.84
2017-03-25T10:13:30.966Z,66.07
2017-03-25T10:14:41.329Z,66.3
2017-03-25T10:15:51.692Z,66.49
2017-03-25T10:17:02.063Z,65.81
2017-03-25T10:18:12.080Z,66.1
2017-03-25T10:19:21.829Z,66.1
2017-03-25T10:20:32.199Z,65.84
2017-03-25T10:21:42.228Z,65.75
2017-03-25T10:22:52.287Z,66.04
2017-03-25T10:24:02.342Z,65.72
2017-03-25T10:25:12.488Z,65.94
2017-03-25T10:26:22.550Z,65.84
2017-03-25T10:27:32.640Z,66.14
2017-03-25T10:28:42.674Z,66.04
2017-03-25T10:29:52.716Z,65.94
2017-03-25T10:31:03.082Z,65.94
2017-03-25T10:32:13.462Z,65.66
2017-03-25T10:33:23.808Z,66.04
2017-03-25T10:34:33.835Z,65.66
2017-03-25T10:35:43.902Z,65.59
2017-03-25T10:36:54.245Z,65.59
2017-03-25T10:38:04.618Z,65.69
2017-03-25T10:39:14.673Z,65.78
2017-03-25T10:40:25.059Z,65.78
2017-03-25T10:41:35.108Z,65.88
2017-03-25T10:42:45.481Z,65.91
2017-03-25T10:43:55.848Z,65.43
2017-03-25T10:45:05.564Z,65.72
2017-03-25T10:46:15.910Z,66.01
2017-03-25T10:47:26.294Z,65.53
2017-03-25T10:48:36.328Z,65.72
2017-03-25T10:49:46.685Z,65.24
2017-03-25T10:50:57.052Z,65.46
2017-03-25T10:52:07.405Z,65.66
2017-03-25T10:53:17.786Z,65.53
2017-03-25T10:54:28.148Z,65.75
2017-03-25T10:55:38.510Z,65.91
2017-03-25T10:56:48.597Z,66.01
2017-03-25T10:57:58.384Z,65.53
2017-03-25T10:59:08.761Z,65.91
2017-03-25T11:00:18.828Z,66.2
2017-03-25T11:01:29.219Z,66.1
2017-03-25T11:02:39.270Z,66.58
2017-03-25T11:03:49.330Z,66.65
2017-03-25T11:04:59.375Z,66.58
2017-03-25T11:06:09.731Z,66.49
2017-03-25T11:07:20.101Z,66.39
2017-03-25T11:08:30.458Z,66.1
2017-03-25T11:09:40.824Z,66.39
2017-03-25T11:10:51.179Z,66.78
2017-03-25T11:12:01.228Z,65.91
2017-03-25T11:13:11.597Z,66.49
2017-03-25T11:14:21.950Z,66.1
2017-03-25T11:15:32.317Z,66.49
2017-03-25T11:16:42.690Z,66.88
2017-03-25T11:17:53.082Z,66.84
2017-03-25T11:19:03.446Z,66.84
2017-03-25T11:20:13.795Z,66.39
2017-03-25T11:21:24.132Z,66.68
2017-03-25T11:22:34.166Z,66.39
2017-03-25T11:23:44.540Z,66.1
2017-03-25T11:24:54.598Z,66.49
2017-03-25T11:26:04.640Z,66.2
2017-03-25T11:27:15.004Z,66.01
2017-03-25T11:28:25.045Z,65.91
2017-03-25T11:29:35.135Z,65.81
2017-03-25T11:30:45.502Z,65.53
2017-03-25T11:31:55.244Z,65.66
2017-03-25T11:33:05.617Z,65.94
2017-03-25T11:34:15.667Z,66.04
2017-03-25T11:35:25.702Z,65.94
2017-03-25T11:36:36.065Z,65.66
2017-03-25T11:37:46.447Z,65.56
2017-03-25T11:38:57.042Z,65.78
2017-03-25T11:40:07.410Z,65.3
2017-03-25T11:41:17.762Z,65.4
2017-03-25T11:42:27.826Z,65.59
2017-03-25T11:43:38.178Z,65.3
2017-03-25T11:44:47.932Z,65.78
2017-03-25T11:45:57.998Z,65.88
2017-03-25T11:47:08.034Z,65.78
2017-03-25T11:48:18.389Z,65.69
2017-03-25T11:49:28.443Z,65.69
2017-03-25T11:50:38.464Z,66.07
2017-03-25T11:51:48.802Z,65.69
2017-03-25T11:52:59.162Z,65.69
2017-03-25T11:54:09.524Z,65.69
2017-03-25T11:55:19.909Z,65.88
2017-03-25T11:56:30.265Z,66.17
2017-03-25T11:57:40.650Z,66.27
2017-03-25T11:58:51.033Z,65.88
2017-03-25T12:00:01.416Z,66.17
2017-03-25T12:01:11.789Z,65.78
2017-03-25T12:02:22.159Z,65.69
2017-03-25T12:03:32.209Z,65.69
2017-03-25T12:04:42.595Z,65.98
2017-03-25T12:05:52.626Z,65.98
2017-03-25T12:07:02.963Z,65.88
2017-03-25T12:08:13.009Z,65.98
2017-03-25T12:09:23.060Z,66.07
2017-03-25T12:10:32.787Z,66.65
2017-03-25T12:11:43.166Z,66.17
2017-03-25T12:12:53.509Z,66.85
2017-03-25T12:14:03.873Z,66.17
2017-03-25T12:15:14.239Z,66.33
2017-03-25T12:16:24.590Z,66.55
2017-03-25T12:17:34.966Z,66.85
2017-03-25T12:18:44.998Z,66.17
2017-03-25T12:19:55.415Z,66.04
2017-03-25T12:21:05.770Z,66.07
2017-03-25T12:22:16.136Z,66.07
2017-03-25T12:23:26.481Z,66.07
2017-03-25T12:24:36.929Z,66.07
2017-03-25T12:25:47.282Z,65.88
2017-03-25T12:26:57.667Z,65.88
2017-03-25T12:28:08.043Z,65.98
2017-03-25T12:29:18.447Z,65.98
2017-03-25T12:30:28.818Z,65.69
2017-03-25T12:31:39.434Z,65.88
2017-03-25T12:32:49.783Z,65.59
2017-03-25T12:34:00.145Z,65.69
2017-03-25T12:35:10.504Z,65.69
2017-03-25T12:36:20.862Z,66.07
2017-03-25T12:37:31.234Z,65.98
2017-03-25T12:38:41.644Z,66.3
2017-03-25T12:39:52.015Z,66.01
2017-03-25T12:41:02.398Z,65.88
2017-03-25T12:42:12.769Z,65.91
2017-03-25T12:43:23.146Z,65.98
2017-03-25T12:44:33.490Z,65.91
2017-03-25T12:45:43.553Z,65.72
2017-03-25T12:46:53.593Z,65.81
2017-03-25T12:48:03.965Z,65.63
2017-03-25T12:49:14.375Z,65.63
2017-03-25T12:50:24.428Z,66.11
2017-03-25T12:51:34.465Z,65.72
2017-03-25T12:52:44.825Z,65.63
2017-03-25T12:53:54.875Z,65.81
2017-03-25T12:55:05.211Z,65.91
2017-03-25T12:56:14.950Z,65.81
2017-03-25T12:57:25.314Z,65.72
2017-03-25T12:58:35.664Z,66.01
2017-03-25T12:59:46.026Z,66.11
2017-03-25T13:00:56.402Z,65.66
2017-03-25T13:02:06.761Z,65.53
2017-03-25T13:03:17.375Z,65.37
2017-03-25T13:04:27.727Z,64.89
2017-03-25T13:05:37.764Z,64.5
2017-03-25T13:06:47.823Z,65.01
2017-03-25T13:07:58.193Z,64.82
2017-03-25T13:09:08.553Z,65.11
2017-03-25T13:10:18.599Z,65.05
2017-03-25T13:11:28.984Z,64.47
2017-03-25T13:12:39.335Z,64.66
2017-03-25T13:13:49.697Z,64.31
2017-03-25T13:14:59.749Z,64.4
2017-03-25T13:16:09.791Z,64.4
2017-03-25T13:17:20.390Z,64.31
2017-03-25T13:18:30.745Z,64.01
2017-03-25T13:19:40.833Z,64.34
2017-03-25T13:20:51.189Z,64.24
2017-03-25T13:22:01.536Z,64.59
2017-03-25T13:23:11.918Z,64.31
2017-03-25T13:24:22.311Z,64.5
2017-03-25T13:25:32.359Z,64.59
2017-03-25T13:26:42.424Z,64.92
2017-03-25T13:27:52.854Z,65.01
2017-03-25T13:29:03.232Z,64.92
2017-03-25T13:30:13.601Z,64.69
2017-03-25T13:31:23.717Z,64.98
2017-03-25T13:32:34.099Z,65.08
2017-03-25T13:33:44.489Z,64.53
2017-03-25T13:34:54.867Z,65.17
2017-03-25T13:36:05.225Z,64.63
2017-03-25T13:37:15.570Z,65.11
2017-03-25T13:38:25.924Z,65.01
2017-03-25T13:39:36.278Z,65.11
2017-03-25T13:40:46.042Z,65.11
2017-03-25T13:41:56.428Z,64.82
2017-03-25T13:43:06.811Z,65.01
2017-03-25T13:44:17.170Z,64.92
2017-03-25T13:45:27.578Z,65.11
2017-03-25T13:46:37.943Z,65.2
2017-03-25T13:47:48.283Z,65.3
2017-03-25T13:48:58.653Z,65.47
2017-03-25T13:50:09.019Z,65.66
2017-03-25T13:51:19.372Z,65.66
2017-03-25T13:52:29.419Z,65.91
2017-03-25T13:53:39.166Z,66.2
2017-03-25T13:54:49.533Z,66.01
2017-03-25T13:55:59.890Z,65.91
2017-03-25T13:57:09.930Z,65.91
2017-03-25T13:58:20.292Z,66.08
2017-03-25T13:59:30.640Z,66.17
2017-03-25T14:00:40.398Z,66.17
2017-03-25T14:01:50.465Z,65.98
2017-03-25T14:03:01.059Z,65.88
2017-03-25T14:04:11.178Z,66.04
2017-03-25T14:05:21.571Z,66.91
2017-03-25T14:06:31.928Z,66.39
2017-03-25T14:07:41.908Z,66.11
2017-03-25T14:08:51.977Z,66.78
2017-03-25T14:10:02.376Z,66.88
2017-03-25T14:11:12.725Z,66.97
2017-03-25T14:12:22.793Z,66.75
2017-03-25T14:13:32.846Z,66.94
2017-03-25T14:14:43.229Z,67.33
2017-03-25T14:15:53.285Z,67.33
2017-03-25T14:17:03.670Z,66.94
2017-03-25T14:18:14.041Z,66.94
2017-03-25T14:19:24.107Z,66.46
2017-03-25T14:20:34.164Z,65.91
2017-03-25T14:21:43.882Z,66.01
2017-03-25T14:22:54.239Z,65.53
2017-03-25T14:24:04.283Z,65.91
2017-03-25T14:25:14.653Z,66.01
2017-03-25T14:26:25.054Z,65.66
2017-03-25T14:27:35.411Z,65.37
2017-03-25T14:28:45.473Z,65.56
2017-03-25T14:29:55.223Z,65.4
2017-03-25T14:31:05.274Z,65.01
2017-03-25T14:32:15.670Z,64.92
2017-03-25T14:33:26.025Z,65.01
2017-03-25T14:34:36.372Z,65.01
2017-03-25T14:35:46.720Z,65.05
2017-03-25T14:36:57.089Z,65.05
2017-03-25T14:38:07.135Z,64.95
2017-03-25T14:39:17.483Z,65.34
2017-03-25T14:40:27.534Z,65.2
2017-03-25T14:41:37.574Z,65.5
2017-03-25T14:42:47.620Z,66.27
2017-03-25T14:43:57.988Z,66.04
2017-03-25T14:45:08.357Z,65.95
2017-03-25T14:46:18.713Z,65.91
2017-03-25T14:47:29.067Z,65.95
2017-03-25T14:48:39.506Z,66.3
2017-03-25T14:49:49.257Z,66.88
2017-03-25T14:50:59.314Z,66.3
2017-03-25T14:52:09.710Z,66.59
2017-03-25T14:53:19.787Z,66.97
2017-03-25T14:54:29.866Z,67.33
2017-03-25T14:55:40.233Z,66.94
2017-03-25T14:56:50.637Z,67.23
2017-03-25T14:58:00.681Z,67.52
2017-03-25T14:59:10.744Z,66.94
2017-03-25T15:00:20.791Z,66.94
2017-03-25T15:01:30.846Z,66.75
2017-03-25T15:02:41.242Z,66.71
2017-03-25T15:03:51.594Z,67.13
2017-03-25T15:05:01.973Z,67.13
2017-03-25T15:06:12.354Z,66.71
2017-03-25T15:07:22.719Z,67
2017-03-25T15:08:33.072Z,67.39
2017-03-25T15:09:43.461Z,67.58
2017-03-25T15:10:53.816Z,67.68
2017-03-25T15:12:04.409Z,67.77
2017-03-25T15:13:14.772Z,67.55
2017-03-25T15:14:25.142Z,67.74
2017-03-25T15:15:35.522Z,67.65
2017-03-25T15:16:45.586Z,67.55
2017-03-25T15:17:55.634Z,67.65
2017-03-25T15:19:05.688Z,67.65
2017-03-25T15:20:15.739Z,67.65
2017-03-25T15:21:25.498Z,67.55
2017-03-25T15:22:35.837Z,67.74
2017-03-25T15:23:46.205Z,67.07
2017-03-25T15:24:56.555Z,67.61
2017-03-25T15:26:06.917Z,67.65
2017-03-25T15:27:17.002Z,67.61
2017-03-25T15:28:27.374Z,67.51
2017-03-25T15:29:37.435Z,67.51
2017-03-25T15:30:47.493Z,67.51
2017-03-25T15:31:57.232Z,67.61
2017-03-25T15:33:07.574Z,67.61
2017-03-25T15:34:17.613Z,67.61
2017-03-25T15:35:27.664Z,67.61
2017-03-25T15:36:38.015Z,67.51
2017-03-25T15:37:48.396Z,67.03